createdAt,value
2023-04-15T00:00:02.400Z,11.8
2023-04-15T00:01:02.290Z,11.9
2023-04-15T00:02:01.456Z,11.7
2023-04-15T00:03:01.560Z,11.8
2023-04-15T00:04:02.106Z,11.7
2023-04-15T00:05:01.756Z,11.8
2023-04-15T00:06:01.857Z,11.8
2023-04-15T00:07:01.658Z,11.7
2023-04-15T00:08:01.693Z,11.8
2023-04-15T00:09:01.809Z,11.7
2023-04-15T00:10:01.385Z,11.8
2023-04-15T00:11:01.419Z,11.7
2023-04-15T00:12:01.269Z,11.7
2023-04-15T00:13:02.347Z,11.7
2023-04-15T00:14:02.256Z,11.7
2023-04-15T00:15:02.310Z,11.7
2023-04-15T00:16:02.325Z,11.7
2023-04-15T00:17:02.263Z,11.7
2023-04-15T00:18:02.318Z,11.6
2023-04-15T00:19:02.361Z,11.5
2023-04-15T00:20:01.818Z,11.6
2023-04-15T00:21:01.838Z,11.6
2023-04-15T00:22:01.708Z,11.5
2023-04-15T00:23:01.730Z,11.5
2023-04-15T00:24:01.614Z,11.5
2023-04-15T00:25:01.613Z,11.6
2023-04-15T00:26:01.565Z,11.4
2023-04-15T00:27:01.487Z,11.5
2023-04-15T00:28:01.547Z,11.5
2023-04-15T00:29:01.590Z,11.5
2023-04-15T00:30:01.868Z,11.6
2023-04-15T00:31:01.903Z,11.6
2023-04-15T00:32:01.962Z,11.6
2023-04-15T00:33:01.973Z,11.5
2023-04-15T00:34:01.947Z,11.5
2023-04-15T00:35:01.785Z,11.4
2023-04-15T00:36:01.839Z,11.4
2023-04-15T00:37:01.680Z,11.5
2023-04-15T00:38:01.719Z,11.5
2023-04-15T00:39:01.677Z,11.5
2023-04-15T00:40:01.964Z,11.5
2023-04-15T00:41:02.065Z,11.5
2023-04-15T00:42:01.860Z,11.5
2023-04-15T00:43:01.823Z,11.5
2023-04-15T00:44:01.891Z,11.5
2023-04-15T00:45:01.680Z,11.5
2023-04-15T00:46:01.746Z,11.5
2023-04-15T00:47:01.669Z,11.5
2023-04-15T00:48:01.767Z,11.4
2023-04-15T00:49:01.779Z,11.4
2023-04-15T00:50:02.108Z,11.5
2023-04-15T00:51:02.160Z,11.5
2023-04-15T00:52:02.070Z,11.5
2023-04-15T00:53:02.130Z,11.4
2023-04-15T00:54:01.982Z,11.4
2023-04-15T00:55:01.952Z,11.4
2023-04-15T00:56:02.038Z,11.4
2023-04-15T00:57:01.893Z,11.4
2023-04-15T00:58:01.791Z,11.4
2023-04-15T00:59:01.877Z,11.5
2023-04-15T01:00:02.241Z,11.4
2023-04-15T01:01:02.129Z,11.5
2023-04-15T01:02:01.875Z,11.4
2023-04-15T01:03:01.973Z,11.4
2023-04-15T01:04:02.302Z,11.4
2023-04-15T01:05:01.316Z,11.5
2023-04-15T01:06:03.858Z,11.5
2023-04-15T01:07:02.067Z,11.4
2023-04-15T01:08:02.113Z,11.4
2023-04-15T01:09:02.191Z,11.5
2023-04-15T01:10:01.893Z,11.5
2023-04-15T01:11:01.904Z,11.4
2023-04-15T01:12:01.858Z,11.4
2023-04-15T01:13:01.785Z,11.3
2023-04-15T01:14:01.770Z,11.4
2023-04-15T01:15:01.716Z,11.3
2023-04-15T01:16:01.669Z,11.3
2023-04-15T01:17:01.828Z,11.3
2023-04-15T01:18:01.901Z,11.3
2023-04-15T01:19:01.940Z,11.3
2023-04-15T01:20:01.735Z,11.3
2023-04-15T01:21:01.747Z,11.4
2023-04-15T01:22:01.555Z,11.2
2023-04-15T01:23:01.604Z,11.3
2023-04-15T01:24:01.478Z,11.3
2023-04-15T01:25:01.491Z,11.2
2023-04-15T01:26:01.387Z,11.2
2023-04-15T01:27:01.424Z,11.1
2023-04-15T01:28:01.272Z,11.1
2023-04-15T01:29:01.433Z,11.3
2023-04-15T01:30:01.607Z,11.4
2023-04-15T01:31:01.656Z,11.4
2023-04-15T01:32:01.558Z,11.4
2023-04-15T01:33:01.649Z,11.4
2023-04-15T01:34:01.514Z,11.4
2023-04-15T01:35:01.583Z,11.3
2023-04-15T01:36:01.440Z,11.3
2023-04-15T01:37:01.489Z,11.4
2023-04-15T01:38:01.314Z,11.4
2023-04-15T01:39:01.510Z,11.4
2023-04-15T01:40:01.759Z,11.4
2023-04-15T01:41:01.823Z,11.4
2023-04-15T01:42:01.668Z,11.3
2023-04-15T01:43:01.744Z,11.3
2023-04-15T01:44:01.594Z,11.4
2023-04-15T01:45:01.546Z,11.4
2023-04-15T01:46:01.447Z,11.2
2023-04-15T01:47:01.511Z,11.3
2023-04-15T01:48:01.530Z,11.2
2023-04-15T01:49:01.751Z,11.3
2023-04-15T01:50:01.364Z,11.3
2023-04-15T01:51:02.702Z,11.3
2023-04-15T01:52:01.312Z,11.3
2023-04-15T01:53:02.384Z,11.1
2023-04-15T01:54:02.278Z,11.2
2023-04-15T01:55:02.332Z,11.2
2023-04-15T01:56:02.217Z,11.1
2023-04-15T01:57:02.239Z,11.2
2023-04-15T01:58:02.071Z,11.2
2023-04-15T01:59:02.335Z,11.1
2023-04-15T02:00:02.438Z,11.2
2023-04-15T02:01:02.336Z,11.2
2023-04-15T02:02:01.362Z,11.1
2023-04-15T02:03:01.512Z,11.1
2023-04-15T02:04:01.414Z,11.1
2023-04-15T02:05:01.402Z,11.1
2023-04-15T02:06:01.344Z,11.1
2023-04-15T02:07:02.338Z,11
2023-04-15T02:08:02.236Z,11.1
2023-04-15T02:09:02.429Z,11.1
2023-04-15T02:10:01.735Z,11.1
2023-04-15T02:11:01.739Z,11.1
2023-04-15T02:12:01.720Z,11
2023-04-15T02:13:01.653Z,11
2023-04-15T02:14:01.642Z,11.1
2023-04-15T02:15:01.616Z,10.9
2023-04-15T02:16:01.576Z,11
2023-04-15T02:17:01.616Z,10.9
2023-04-15T02:18:01.750Z,10.9
2023-04-15T02:19:01.762Z,10.8
2023-04-15T02:20:02.022Z,10.8
2023-04-15T02:21:01.971Z,10.8
2023-04-15T02:22:01.856Z,10.9
2023-04-15T02:23:01.819Z,10.8
2023-04-15T02:24:01.888Z,10.8
2023-04-15T02:25:01.673Z,10.9
2023-04-15T02:26:01.758Z,10.8
2023-04-15T02:27:01.604Z,10.8
2023-04-15T02:28:01.608Z,10.8
2023-04-15T02:29:01.635Z,10.8
2023-04-15T02:30:01.954Z,10.8
2023-04-15T02:31:01.991Z,10.8
2023-04-15T02:32:01.946Z,10.7
2023-04-15T02:33:01.959Z,10.7
2023-04-15T02:34:01.977Z,10.7
2023-04-15T02:35:01.883Z,10.7
2023-04-15T02:36:01.833Z,10.6
2023-04-15T02:37:01.899Z,10.8
2023-04-15T02:38:01.743Z,10.7
2023-04-15T02:39:01.988Z,10.7
2023-04-15T02:40:01.685Z,10.8
2023-04-15T02:41:01.617Z,10.8
2023-04-15T02:42:01.661Z,10.6
2023-04-15T02:43:01.610Z,10.6
2023-04-15T02:44:01.477Z,10.6
2023-04-15T02:45:01.512Z,10.6
2023-04-15T02:46:01.431Z,10.6
2023-04-15T02:47:01.597Z,10.6
2023-04-15T02:48:01.651Z,10.5
2023-04-15T02:49:01.540Z,10.6
2023-04-15T02:50:01.627Z,10.5
2023-04-15T02:51:01.507Z,10.5
2023-04-15T02:52:01.556Z,10.5
2023-04-15T02:53:01.745Z,10.5
2023-04-15T02:54:01.627Z,10.4
2023-04-15T02:55:01.661Z,10.4
2023-04-15T02:56:01.491Z,10.4
2023-04-15T02:57:01.532Z,10.5
2023-04-15T02:58:01.466Z,10.3
2023-04-15T02:59:01.491Z,10.3
2023-04-15T03:00:01.865Z,10.4
2023-04-15T03:01:01.767Z,10.4
2023-04-15T03:02:01.892Z,10.3
2023-04-15T03:03:01.953Z,10.3
2023-04-15T03:04:02.060Z,10.3
2023-04-15T03:05:01.393Z,10.4
2023-04-15T03:06:01.409Z,10.4
2023-04-15T03:07:02.402Z,10.3
2023-04-15T03:08:02.234Z,10.3
2023-04-15T03:09:02.433Z,10.2
2023-04-15T03:10:01.501Z,10.2
2023-04-15T03:11:01.580Z,10.3
2023-04-15T03:12:01.382Z,10.4
2023-04-15T03:13:01.463Z,10.3
2023-04-15T03:14:02.386Z,10.2
2023-04-15T03:15:02.368Z,10.2
2023-04-15T03:16:02.295Z,10.2
2023-04-15T03:17:02.206Z,10.2
2023-04-15T03:18:02.255Z,10.2
2023-04-15T03:19:01.551Z,10.2
2023-04-15T03:20:01.891Z,10.1
2023-04-15T03:21:01.751Z,10.1
2023-04-15T03:22:01.781Z,10.1
2023-04-15T03:23:01.625Z,10.2
2023-04-15T03:24:01.679Z,10.1
2023-04-15T03:25:01.528Z,10.2
2023-04-15T03:26:01.565Z,10.1
2023-04-15T03:27:01.509Z,10
2023-04-15T03:28:01.394Z,9.9
2023-04-15T03:29:01.480Z,9.9
2023-04-15T03:30:01.974Z,9.9
2023-04-15T03:31:01.975Z,9.9
2023-04-15T03:32:01.831Z,9.9
2023-04-15T03:33:01.869Z,10.1
2023-04-15T03:34:01.845Z,10
2023-04-15T03:35:01.636Z,10
2023-04-15T03:36:01.682Z,9.9
2023-04-15T03:37:01.534Z,9.9
2023-04-15T03:38:01.585Z,9.8
2023-04-15T03:39:01.599Z,9.8
2023-04-15T03:40:02.133Z,9.9
2023-04-15T03:41:02.218Z,9.8
2023-04-15T03:42:02.085Z,9.9
2023-04-15T03:43:02.198Z,9.8
2023-04-15T03:44:02.015Z,9.8
2023-04-15T03:45:02.044Z,9.7
2023-04-15T03:46:02.052Z,9.6
2023-04-15T03:47:01.936Z,9.6
2023-04-15T03:49:01.929Z,9.6
2023-04-15T03:50:01.704Z,9.6
2023-04-15T03:51:01.737Z,9.7
2023-04-15T03:52:01.658Z,9.7
2023-04-15T03:53:01.648Z,9.6
2023-04-15T03:54:01.581Z,9.6
2023-04-15T03:55:01.599Z,9.7
2023-04-15T03:56:01.451Z,9.6
2023-04-15T03:57:01.445Z,9.6
2023-04-15T03:58:01.343Z,9.5
2023-04-15T03:59:01.524Z,9.4
2023-04-15T04:00:02.424Z,9.4
2023-04-15T04:01:02.289Z,9.5
2023-04-15T04:02:02.359Z,9.4
2023-04-15T04:03:01.611Z,9.3
2023-04-15T04:04:02.062Z,9.6
2023-04-15T04:05:02.167Z,9.6
2023-04-15T04:06:02.207Z,9.4
2023-04-15T04:07:02.056Z,9.4
2023-04-15T04:08:02.060Z,9.4
2023-04-15T04:09:02.119Z,9.5
2023-04-15T04:10:01.816Z,9.4
2023-04-15T04:11:01.866Z,9.4
2023-04-15T04:12:01.796Z,9.5
2023-04-15T04:13:01.692Z,9.4
2023-04-15T04:14:01.738Z,9.3
2023-04-15T04:15:01.694Z,9.4
2023-04-15T04:16:01.730Z,9.3
2023-04-15T04:17:01.717Z,9.3
2023-04-15T04:18:01.706Z,9.3
2023-04-15T04:19:01.811Z,9.3
2023-04-15T04:20:01.704Z,9.3
2023-04-15T04:21:01.720Z,9.1
2023-04-15T04:22:01.773Z,9.2
2023-04-15T04:23:01.739Z,9.1
2023-04-15T04:24:01.664Z,9.2
2023-04-15T04:25:01.595Z,9.2
2023-04-15T04:26:01.518Z,9.2
2023-04-15T04:27:01.548Z,9.2
2023-04-15T04:28:01.447Z,9.4
2023-04-15T04:29:01.537Z,9.4
2023-04-15T04:30:01.910Z,9.2
2023-04-15T04:31:01.843Z,9.2
2023-04-15T04:32:01.715Z,9.2
2023-04-15T04:33:01.444Z,9
2023-04-15T04:34:02.354Z,9
2023-04-15T04:35:02.257Z,9.1
2023-04-15T04:36:02.291Z,9.2
2023-04-15T04:37:02.186Z,9.2
2023-04-15T04:38:02.224Z,9.1
2023-04-15T04:39:02.190Z,9.2
2023-04-15T04:40:01.595Z,9.1
2023-04-15T04:41:01.528Z,9.2
2023-04-15T04:42:01.526Z,9.2
2023-04-15T04:43:01.422Z,9.2
2023-04-15T04:44:01.404Z,9.1
2023-04-15T04:45:01.276Z,9.2
2023-04-15T04:46:02.408Z,9.3
2023-04-15T04:47:02.070Z,9.4
2023-04-15T04:48:02.122Z,9.5
2023-04-15T04:49:02.141Z,9.6
2023-04-15T04:50:01.467Z,9.6
2023-04-15T04:51:01.513Z,9.6
2023-04-15T04:52:01.461Z,9.6
2023-04-15T04:53:01.428Z,9.5
2023-04-15T04:54:03.526Z,9.4
2023-04-15T04:55:01.561Z,9.5
2023-04-15T04:56:01.599Z,9.5
2023-04-15T04:57:01.440Z,9.6
2023-04-15T04:58:01.482Z,9.5
2023-04-15T04:59:01.492Z,9.6
2023-04-15T05:00:01.838Z,9.6
2023-04-15T05:01:01.885Z,9.6
2023-04-15T05:02:01.696Z,9.6
2023-04-15T05:03:01.850Z,9.8
2023-04-15T05:04:02.198Z,9.7
2023-04-15T05:05:02.309Z,9.8
2023-04-15T05:06:02.180Z,9.5
2023-04-15T05:07:02.251Z,9.5
2023-04-15T05:08:02.139Z,9.7
2023-04-15T05:09:02.579Z,9.8
2023-04-15T05:10:01.220Z,9.8
2023-04-15T05:11:02.331Z,9.8
2023-04-15T05:12:02.128Z,9.7
2023-04-15T05:13:02.238Z,9.8
2023-04-15T05:14:02.077Z,9.8
2023-04-15T05:15:02.136Z,9.8
2023-04-15T05:16:01.956Z,9.8
2023-04-15T05:17:01.966Z,9.9
2023-04-15T05:18:02.045Z,9.9
2023-04-15T05:19:02.110Z,9.9
2023-04-15T05:20:01.687Z,9.8
2023-04-15T05:21:01.720Z,9.9
2023-04-15T05:22:01.598Z,9.9
2023-04-15T05:23:01.654Z,9.9
2023-04-15T05:24:01.578Z,9.9
2023-04-15T05:25:01.680Z,9.9
2023-04-15T05:26:01.524Z,9.8
2023-04-15T05:27:01.523Z,9.8
2023-04-15T05:28:01.459Z,9.8
2023-04-15T05:29:01.801Z,9.8
2023-04-15T05:30:01.532Z,9.8
2023-04-15T05:31:01.638Z,9.9
2023-04-15T05:32:01.423Z,9.9
2023-04-15T05:33:02.398Z,9.9
2023-04-15T05:34:02.232Z,10
2023-04-15T05:35:02.240Z,10
2023-04-15T05:36:02.175Z,10
2023-04-15T05:37:02.258Z,9.9
2023-04-15T05:38:02.098Z,10
2023-04-15T05:39:02.337Z,9.9
2023-04-15T05:40:01.792Z,9.9
2023-04-15T05:41:01.748Z,9.8
2023-04-15T05:42:01.753Z,9.7
2023-04-15T05:43:01.687Z,9.9
2023-04-15T05:44:01.657Z,9.9
2023-04-15T05:45:01.512Z,9.9
2023-04-15T05:46:01.526Z,9.9
2023-04-15T05:47:01.278Z,9.9
2023-04-15T05:48:02.338Z,10
2023-04-15T05:49:02.302Z,9.9
2023-04-15T05:50:01.902Z,9.8
2023-04-15T05:51:01.962Z,10.1
2023-04-15T05:52:01.776Z,10.2
2023-04-15T05:53:01.824Z,10.1
2023-04-15T05:54:01.812Z,10.1
2023-04-15T05:55:01.605Z,10.1
2023-04-15T05:56:01.652Z,10
2023-04-15T05:57:01.503Z,9.9
2023-04-15T05:58:01.584Z,10.1
2023-04-15T05:59:01.506Z,10.2
2023-04-15T06:00:02.084Z,10.2
2023-04-15T06:01:01.884Z,10.3
2023-04-15T06:02:01.453Z,10.3
2023-04-15T06:03:01.568Z,10.2
2023-04-15T06:04:01.411Z,10.1
2023-04-15T06:05:01.510Z,10.2
2023-04-15T06:06:01.694Z,10.3
2023-04-15T06:07:01.747Z,10.4
2023-04-15T06:08:01.628Z,10.3
2023-04-15T06:09:01.831Z,10.3
2023-04-15T06:10:01.271Z,10.3
2023-04-15T06:11:02.327Z,10.3
2023-04-15T06:12:02.212Z,10.5
2023-04-15T06:13:02.189Z,10.5
2023-04-15T06:14:02.108Z,10.6
2023-04-15T06:15:02.174Z,10.6
2023-04-15T06:16:02.043Z,10.6
2023-04-15T06:17:01.936Z,10.5
2023-04-15T06:18:02.009Z,10.5
2023-04-15T06:19:02.140Z,10.6
2023-04-15T06:20:01.408Z,10.7
2023-04-15T06:21:01.405Z,10.6
2023-04-15T06:22:01.327Z,10.6
2023-04-15T06:23:02.376Z,10.7
2023-04-15T06:24:02.249Z,10.7
2023-04-15T06:25:02.352Z,10.7
2023-04-15T06:26:02.216Z,10.8
2023-04-15T06:27:02.316Z,10.6
2023-04-15T06:28:02.173Z,10.6
2023-04-15T06:29:02.471Z,10.7
2023-04-15T06:30:01.867Z,10.9
2023-04-15T06:31:01.936Z,10.8
2023-04-15T06:32:01.592Z,10.8
2023-04-15T06:33:01.709Z,10.9
2023-04-15T06:34:01.466Z,11
2023-04-15T06:35:01.467Z,10.9
2023-04-15T06:36:01.332Z,10.9
2023-04-15T06:37:01.397Z,11.2
2023-04-15T06:38:01.943Z,11.4
2023-04-15T06:39:02.089Z,11.6
2023-04-15T06:40:01.847Z,11.7
2023-04-15T06:41:01.700Z,11.6
2023-04-15T06:42:01.739Z,11.6
2023-04-15T06:43:01.575Z,11.6
2023-04-15T06:44:01.633Z,11.8
2023-04-15T06:45:01.460Z,11.8
2023-04-15T06:46:01.557Z,11.6
2023-04-15T06:47:01.288Z,11.6
2023-04-15T06:48:02.350Z,11.4
2023-04-15T06:49:02.377Z,11.4
2023-04-15T06:50:01.633Z,11.7
2023-04-15T06:51:01.565Z,11.8
2023-04-15T06:52:01.581Z,11.5
2023-04-15T06:53:01.504Z,11.5
2023-04-15T06:54:01.548Z,11.7
2023-04-15T06:55:01.410Z,11.6
2023-04-15T06:56:01.413Z,11.6
2023-04-15T06:57:01.334Z,11.6
2023-04-15T06:58:01.426Z,11.9
2023-04-15T06:59:01.510Z,11.8
2023-04-15T07:00:02.292Z,11.8
2023-04-15T07:01:02.213Z,11.8
2023-04-15T07:02:02.089Z,12
2023-04-15T07:03:02.155Z,12.1
2023-04-15T07:04:01.969Z,12.4
2023-04-15T07:05:01.902Z,12.6
2023-04-15T07:06:01.976Z,12.7
2023-04-15T07:07:01.880Z,12.6
2023-04-15T07:08:01.838Z,12.6
2023-04-15T07:09:02.009Z,12.3
2023-04-15T07:10:01.632Z,12.3
2023-04-15T07:11:01.658Z,12.3
2023-04-15T07:12:01.592Z,12.3
2023-04-15T07:13:01.537Z,12.2
2023-04-15T07:14:01.428Z,12.1
2023-04-15T07:15:01.549Z,12
2023-04-15T07:16:01.387Z,12.1
2023-04-15T07:17:01.317Z,12.3
2023-04-15T07:18:01.497Z,12.2
2023-04-15T07:19:01.556Z,12.3
2023-04-15T07:20:02.019Z,12.3
2023-04-15T07:21:02.092Z,12.2
2023-04-15T07:22:01.942Z,12.3
2023-04-15T07:23:01.877Z,12.5
2023-04-15T07:24:01.928Z,12.6
2023-04-15T07:25:01.698Z,12.7
2023-04-15T07:26:01.767Z,12.7
2023-04-15T07:27:01.650Z,13
2023-04-15T07:28:01.671Z,12.9
2023-04-15T07:29:01.611Z,13.2
2023-04-15T07:30:02.187Z,13.3
2023-04-15T07:31:02.274Z,13.3
2023-04-15T07:32:01.290Z,13.4
2023-04-15T07:33:02.449Z,13.3
2023-04-15T07:34:02.310Z,13.2
2023-04-15T07:35:02.302Z,13.1
2023-04-15T07:36:02.214Z,13.3
2023-04-15T07:37:02.251Z,13.3
2023-04-15T07:38:02.158Z,13.1
2023-04-15T07:39:02.396Z,13.1
2023-04-15T07:40:01.511Z,13.4
2023-04-15T07:41:01.588Z,13.2
2023-04-15T07:42:01.465Z,12.9
2023-04-15T07:43:01.480Z,13.2
2023-04-15T07:44:01.365Z,13.2
2023-04-15T07:45:01.425Z,13.5
2023-04-15T07:46:02.445Z,13.5
2023-04-15T07:47:01.336Z,13.3
2023-04-15T07:48:01.406Z,13.6
2023-04-15T07:49:02.566Z,13.5
2023-04-15T07:50:01.638Z,13.7
2023-04-15T07:51:01.751Z,13.6
2023-04-15T07:52:01.643Z,13.5
2023-04-15T07:53:01.726Z,13.6
2023-04-15T07:54:01.578Z,13.9
2023-04-15T07:55:01.682Z,14.1
2023-04-15T07:56:01.469Z,14.4
2023-04-15T07:57:01.552Z,14.2
2023-04-15T07:58:01.430Z,14.1
2023-04-15T07:59:01.695Z,14.4
2023-04-15T08:00:03.029Z,14.4
2023-04-15T08:01:01.729Z,14.6
2023-04-15T08:02:02.274Z,14.8
2023-04-15T08:03:02.422Z,14.9
2023-04-15T08:04:01.911Z,14.9
2023-04-15T08:05:02.158Z,14.8
2023-04-15T08:06:01.978Z,14.8
2023-04-15T08:07:01.940Z,15
2023-04-15T08:08:01.983Z,15.2
2023-04-15T08:09:02.064Z,15.1
2023-04-15T08:10:01.480Z,15.1
2023-04-15T08:11:01.510Z,14.8
2023-04-15T08:12:01.332Z,14.8
2023-04-15T08:13:01.388Z,14.7
2023-04-15T08:14:02.337Z,14.8
2023-04-15T08:15:02.209Z,14.9
2023-04-15T08:16:02.291Z,14.8
2023-04-15T08:17:02.212Z,14.9
2023-04-15T08:18:02.244Z,15
2023-04-15T08:19:02.257Z,14.7
2023-04-15T08:20:01.680Z,14.3
2023-04-15T08:21:01.554Z,14.5
2023-04-15T08:22:01.700Z,14.2
2023-04-15T08:23:01.632Z,14.1
2023-04-15T08:24:01.662Z,14
2023-04-15T08:25:01.560Z,13.9
2023-04-15T08:26:01.584Z,14.4
2023-04-15T08:27:01.428Z,15
2023-04-15T08:28:01.825Z,15.1
2023-04-15T08:29:02.191Z,14.9
2023-04-15T08:30:04.293Z,15.5
2023-04-15T08:31:01.857Z,15.7
2023-04-15T08:32:02.094Z,15.3
2023-04-15T08:33:02.200Z,14.7
2023-04-15T08:34:02.042Z,14.6
2023-04-15T08:35:02.118Z,15.3
2023-04-15T08:36:01.993Z,15.6
2023-04-15T08:37:01.984Z,16
2023-04-15T08:38:02.034Z,16.2
2023-04-15T08:39:02.021Z,16
2023-04-15T08:40:01.672Z,15.7
2023-04-15T08:41:01.709Z,15.5
2023-04-15T08:42:01.560Z,15.4
2023-04-15T08:43:02.218Z,15.2
2023-04-15T08:44:02.269Z,15.4
2023-04-15T08:45:02.209Z,15.9
2023-04-15T08:46:02.181Z,16.1
2023-04-15T08:47:02.010Z,16.2
2023-04-15T08:48:02.112Z,15.8
2023-04-15T08:49:02.272Z,15.8
2023-04-15T08:50:01.613Z,15.9
2023-04-15T08:51:01.660Z,16
2023-04-15T08:52:01.511Z,15.8
2023-04-15T08:53:01.497Z,16.2
2023-04-15T08:54:01.508Z,15.8
2023-04-15T08:55:01.394Z,16.3
2023-04-15T08:56:02.334Z,16.5
2023-04-15T08:57:02.269Z,16.8
2023-04-15T08:58:02.312Z,16.4
2023-04-15T08:59:02.420Z,16.7
2023-04-15T09:00:03.885Z,16.7
2023-04-15T09:01:01.410Z,17.1
2023-04-15T09:02:01.426Z,17.2
2023-04-15T09:03:02.400Z,17.1
2023-04-15T09:04:02.289Z,16.6
2023-04-15T09:05:02.290Z,16.8
2023-04-15T09:06:02.149Z,17.2
2023-04-15T09:07:02.168Z,16.5
2023-04-15T09:08:02.093Z,16.7
2023-04-15T09:09:02.349Z,16.5
2023-04-15T09:10:01.953Z,17.8
2023-04-15T09:11:02.006Z,17.6
2023-04-15T09:12:01.909Z,17.2
2023-04-15T09:13:01.826Z,17
2023-04-15T09:14:01.870Z,16.8
2023-04-15T09:15:01.735Z,16.4
2023-04-15T09:16:01.714Z,16
2023-04-15T09:17:01.669Z,15.7
2023-04-15T09:18:01.682Z,15.6
2023-04-15T09:19:01.686Z,15.7
2023-04-15T09:20:02.150Z,16.1
2023-04-15T09:21:02.213Z,16.3
2023-04-15T09:22:02.102Z,16.7
2023-04-15T09:23:02.100Z,16.8
2023-04-15T09:24:02.279Z,16.6
2023-04-15T09:25:01.708Z,16.4
2023-04-15T09:26:01.752Z,16
2023-04-15T09:27:01.589Z,16
2023-04-15T09:28:01.647Z,15.9
2023-04-15T09:29:01.491Z,15.9
2023-04-15T09:30:01.502Z,15.4
2023-04-15T09:31:01.377Z,15.4
2023-04-15T09:32:01.580Z,15.8
2023-04-15T09:33:01.578Z,16.1
2023-04-15T09:34:01.651Z,16.4
2023-04-15T09:35:02.266Z,15.8
2023-04-15T09:36:02.163Z,15.9
2023-04-15T09:37:02.114Z,16.3
2023-04-15T09:38:02.256Z,15.7
2023-04-15T09:39:02.074Z,15.9
2023-04-15T09:40:02.096Z,16.7
2023-04-15T09:41:02.018Z,17
2023-04-15T09:42:01.964Z,16.8
2023-04-15T09:43:01.968Z,16.5
2023-04-15T09:44:02.037Z,16.2
2023-04-15T09:45:01.311Z,15.8
2023-04-15T09:46:02.329Z,15.5
2023-04-15T09:47:01.991Z,15.4
2023-04-15T09:48:02.096Z,15.1
2023-04-15T09:49:01.891Z,15.6
2023-04-15T09:50:02.098Z,16.1
2023-04-15T09:51:01.389Z,16.5
2023-04-15T09:52:05.953Z,16.5
2023-04-15T09:53:01.501Z,16.6
2023-04-15T09:54:01.683Z,16.5
2023-04-15T09:55:01.981Z,16
2023-04-15T09:56:02.064Z,16
2023-04-15T09:57:01.920Z,16
2023-04-15T09:58:01.831Z,16.1
2023-04-15T09:59:01.800Z,16.1
2023-04-15T10:00:03.216Z,16.6
2023-04-15T10:01:02.132Z,16.5
2023-04-15T10:02:01.583Z,16.3
2023-04-15T10:03:01.644Z,16.3
2023-04-15T10:04:01.745Z,16
2023-04-15T10:05:01.653Z,16.6
2023-04-15T10:06:01.663Z,16.6
2023-04-15T10:07:01.679Z,17.3
2023-04-15T10:08:01.571Z,16.9
2023-04-15T10:09:01.488Z,17.4
2023-04-15T10:10:01.471Z,17.5
2023-04-15T10:11:01.320Z,17.3
2023-04-15T10:12:02.376Z,17.7
2023-04-15T10:13:02.244Z,17.1
2023-04-15T10:14:02.489Z,16.9
2023-04-15T10:15:01.521Z,17.1
2023-04-15T10:16:01.594Z,17
2023-04-15T10:17:01.568Z,17
2023-04-15T10:18:01.662Z,17
2023-04-15T10:19:01.489Z,17.2
2023-04-15T10:20:01.540Z,17.4
2023-04-15T10:21:01.403Z,17.7
2023-04-15T10:22:01.455Z,17.9
2023-04-15T10:23:01.283Z,17.7
2023-04-15T10:24:02.531Z,18.2
2023-04-15T10:25:02.105Z,18.3
2023-04-15T10:26:02.148Z,19
2023-04-15T10:27:01.999Z,18.9
2023-04-15T10:28:02.096Z,18.2
2023-04-15T10:29:01.995Z,18.8
2023-04-15T10:30:02.039Z,18.5
2023-04-15T10:31:02.065Z,17.9
2023-04-15T10:32:01.934Z,17.7
2023-04-15T10:33:02.045Z,17.3
2023-04-15T10:34:02.314Z,17.1
2023-04-15T10:35:01.528Z,16.8
2023-04-15T10:36:01.609Z,17.1
2023-04-15T10:37:01.450Z,17.3
2023-04-15T10:38:01.436Z,16.8
2023-04-15T10:39:01.322Z,16.8
2023-04-15T10:40:02.390Z,17
2023-04-15T10:41:02.293Z,17.1
2023-04-15T10:42:02.296Z,16.9
2023-04-15T10:43:02.148Z,17
2023-04-15T10:44:02.441Z,16.7
2023-04-15T10:45:02.106Z,16.8
2023-04-15T10:46:02.271Z,16.6
2023-04-15T10:47:01.309Z,16.6
2023-04-15T10:48:03.676Z,16.8
2023-04-15T10:49:01.684Z,16.9
2023-04-15T10:50:01.762Z,17.1
2023-04-15T10:51:01.646Z,17.2
2023-04-15T10:52:01.714Z,17.3
2023-04-15T10:53:01.631Z,17.2
2023-04-15T10:54:01.682Z,17
2023-04-15T10:55:01.468Z,16.8
2023-04-15T10:56:01.513Z,16.8
2023-04-15T10:57:01.407Z,16.6
2023-04-15T10:58:01.474Z,16.9
2023-04-15T10:59:01.332Z,16.7
2023-04-15T11:00:01.705Z,16.6
2023-04-15T11:01:01.444Z,16.6
2023-04-15T11:02:02.343Z,16
2023-04-15T11:03:02.406Z,15.8
2023-04-15T11:04:01.540Z,16.2
2023-04-15T11:05:01.883Z,16.3
2023-04-15T11:06:01.762Z,16.4
2023-04-15T11:07:01.772Z,16.3
2023-04-15T11:08:01.642Z,16.6
2023-04-15T11:09:01.681Z,16.7
2023-04-15T11:10:01.572Z,16.5
2023-04-15T11:11:01.546Z,16.4
2023-04-15T11:12:01.431Z,16.1
2023-04-15T11:13:01.521Z,16.1
2023-04-15T11:14:01.432Z,15.9
2023-04-15T11:15:01.891Z,15.9
2023-04-15T11:16:02.183Z,16
2023-04-15T11:17:01.717Z,16.4
2023-04-15T11:18:01.797Z,16.1
2023-04-15T11:19:01.621Z,16
2023-04-15T11:20:01.599Z,15.8
2023-04-15T11:21:01.461Z,15.8
2023-04-15T11:22:01.487Z,15.9
2023-04-15T11:23:08.436Z,15.9
2023-04-15T11:24:02.319Z,15.9
2023-04-15T11:25:01.801Z,15.9
2023-04-15T11:26:01.557Z,15.9
2023-04-15T11:27:01.573Z,16
2023-04-15T11:28:01.430Z,16.4
2023-04-15T11:29:01.609Z,16.6
2023-04-15T11:30:01.787Z,16.7
2023-04-15T11:31:01.758Z,16.8
2023-04-15T11:32:01.980Z,16.6
2023-04-15T11:33:02.013Z,16.4
2023-04-15T11:34:01.897Z,16.2
2023-04-15T11:35:01.844Z,16.3
2023-04-15T11:36:01.860Z,16
2023-04-15T11:37:01.762Z,16.3
2023-04-15T11:38:01.802Z,16.3
2023-04-15T11:39:01.659Z,16.4
2023-04-15T11:40:01.649Z,16.3
2023-04-15T11:41:01.505Z,16.6
2023-04-15T11:42:01.541Z,16.4
2023-04-15T11:43:01.438Z,16.5
2023-04-15T11:44:01.521Z,16.7
2023-04-15T11:45:02.216Z,16.8
2023-04-15T11:46:02.163Z,16.5
2023-04-15T11:47:02.229Z,16.8
2023-04-15T11:48:02.250Z,17
2023-04-15T11:49:02.162Z,16.6
2023-04-15T11:50:02.219Z,16.9
2023-04-15T11:51:02.138Z,17.1
2023-04-15T11:52:02.198Z,17.2
2023-04-15T11:53:02.121Z,17
2023-04-15T11:54:02.641Z,17.1
2023-04-15T11:55:01.420Z,16.9
2023-04-15T11:56:01.453Z,16.4
2023-04-15T11:57:01.275Z,17.1
2023-04-15T11:58:02.297Z,16.4
2023-04-15T11:59:02.243Z,16.8
2023-04-15T12:00:02.294Z,16.8
2023-04-15T12:01:02.127Z,16.8
2023-04-15T12:02:02.121Z,16.8
2023-04-15T12:03:02.300Z,16.5
2023-04-15T12:04:01.525Z,16.6
2023-04-15T12:05:01.455Z,16.5
2023-04-15T12:06:01.276Z,16.5
2023-04-15T12:07:02.345Z,16.5
2023-04-15T12:08:02.208Z,15.9
2023-04-15T12:09:02.266Z,16.1
2023-04-15T12:10:02.211Z,16.4
2023-04-15T12:11:02.141Z,16
2023-04-15T12:12:02.092Z,15.9
2023-04-15T12:13:02.146Z,16
2023-04-15T12:14:02.196Z,15.8
2023-04-15T12:15:01.721Z,16.4
2023-04-15T12:16:01.663Z,16.5
2023-04-15T12:17:01.603Z,16.6
2023-04-15T12:18:01.565Z,16.8
2023-04-15T12:19:01.650Z,16.2
2023-04-15T12:20:02.224Z,16.5
2023-04-15T12:21:02.227Z,16.4
2023-04-15T12:22:02.113Z,16.1
2023-04-15T12:23:02.138Z,16.2
2023-04-15T12:24:02.295Z,16.2
2023-04-15T12:25:01.357Z,16.8
2023-04-15T12:26:01.387Z,16.4
2023-04-15T12:27:02.373Z,15.9
2023-04-15T12:28:02.214Z,16.2
2023-04-15T12:29:02.268Z,16.4
2023-04-15T12:30:02.162Z,16.8
2023-04-15T12:31:02.184Z,16.7
2023-04-15T12:32:02.250Z,16.7
2023-04-15T12:33:02.408Z,16.3
2023-04-15T12:34:02.239Z,16.2
2023-04-15T12:35:01.403Z,16.3
2023-04-15T12:36:02.337Z,16.7
2023-04-15T12:37:02.281Z,16.5
2023-04-15T12:38:02.340Z,16.3
2023-04-15T12:39:02.226Z,16.3
2023-04-15T12:40:02.242Z,16.3
2023-04-15T12:41:02.102Z,16.3
2023-04-15T12:42:02.182Z,16.1
2023-04-15T12:43:02.069Z,16.1
2023-04-15T12:44:02.192Z,16.1
2023-04-15T12:45:01.370Z,16
2023-04-15T12:46:01.408Z,16
2023-04-15T12:47:01.390Z,16
2023-04-15T12:48:01.414Z,15.9
2023-04-15T12:49:02.372Z,15.9
2023-04-15T12:50:02.239Z,15.9
2023-04-15T12:51:03.402Z,15.9
2023-04-15T12:52:01.368Z,15.9
2023-04-15T12:53:01.403Z,15.9
2023-04-15T12:54:02.526Z,15.9
2023-04-15T12:55:02.253Z,15.7
2023-04-15T12:56:02.322Z,15.7
2023-04-15T12:57:02.887Z,15.8
2023-04-15T12:58:01.914Z,15.6
2023-04-15T12:59:01.964Z,15.8
2023-04-15T13:00:01.793Z,15.9
2023-04-15T13:01:01.812Z,16
2023-04-15T13:02:01.933Z,15.8
2023-04-15T13:03:02.932Z,15.8
2023-04-15T13:04:01.962Z,15.9
2023-04-15T13:05:02.157Z,15.9
2023-04-15T13:06:02.040Z,15.7
2023-04-15T13:07:02.102Z,16.3
2023-04-15T13:08:01.948Z,16.7
2023-04-15T13:09:02.651Z,16.5
2023-04-15T13:10:01.558Z,16.5
2023-04-15T13:11:01.521Z,16.3
2023-04-15T13:12:01.461Z,16.2
2023-04-15T13:13:01.497Z,16.1
2023-04-15T13:14:01.361Z,16.2
2023-04-15T13:15:02.434Z,16.1
2023-04-15T13:16:02.399Z,16.6
2023-04-15T13:17:01.604Z,16.8
2023-04-15T13:18:01.678Z,17.1
2023-04-15T13:19:01.638Z,17.4
2023-04-15T13:20:01.506Z,17.5
2023-04-15T13:21:01.664Z,17.4
2023-04-15T13:22:01.792Z,17.7
2023-04-15T13:23:01.723Z,18
2023-04-15T13:24:01.625Z,18.6
2023-04-15T13:25:01.660Z,18.6
2023-04-15T13:26:01.510Z,18.4
2023-04-15T13:27:01.549Z,18.5